createdAt,value
2017-05-12T05:44:15.664Z,7.50
2017-05-12T05:46:41.555Z,8.70
2017-05-12T05:49:08.186Z,8.90
2017-05-12T05:51:34.790Z,9.46
2017-05-12T05:54:00.669Z,9.08
2017-05-12T05:56:26.695Z,9.04
2017-05-12T05:58:52.571Z,8.72
2017-05-12T06:01:19.224Z,10.10
2017-05-12T06:03:45.851Z,7.90
2017-05-12T06:06:12.465Z,9.06
2017-05-12T06:08:38.437Z,9.14
2017-05-12T06:11:04.323Z,9.50
2017-05-12T06:13:30.201Z,8.50
2017-05-12T10:01:00.097Z,8.87
2017-05-12T10:03:25.984Z,8.50
2017-05-12T10:05:51.857Z,6.80
2017-05-12T10:08:17.760Z,5.72
2017-05-12T10:10:44.380Z,5.24
2017-05-12T10:13:11.005Z,5.38
2017-05-12T10:15:36.968Z,5.26
2017-05-12T10:18:02.916Z,5.48
2017-05-12T10:20:28.795Z,4.64
2017-05-12T10:22:55.407Z,4.74
2017-05-12T10:25:21.290Z,4.40
2017-05-12T10:27:47.244Z,4.68
2017-05-12T10:30:13.119Z,4.10
2017-05-12T10:32:39.007Z,5.16
2017-05-12T10:35:05.620Z,5.00
2017-05-12T10:37:31.517Z,4.72
2017-05-12T10:39:57.619Z,4.88
2017-05-12T10:42:23.566Z,4.98
2017-05-12T10:44:49.449Z,5.24
2017-05-12T10:47:15.348Z,3.74
2017-05-12T10:49:41.969Z,4.62
2017-05-12T10:52:07.939Z,4.26
2017-05-12T10:54:33.839Z,4.62
2017-05-12T10:56:59.738Z,4.00
2017-05-12T10:59:26.350Z,4.82
2017-05-12T11:01:52.231Z,4.46
2017-05-12T11:04:18.262Z,4.20
2017-05-12T11:06:44.163Z,4.54
2017-05-12T11:09:10.039Z,4.70
2017-05-12T11:11:35.935Z,3.40
2017-05-12T11:14:01.836Z,3.90
2017-05-12T11:16:27.767Z,3.68
2017-05-12T11:18:53.652Z,3.94
2017-05-12T11:21:19.549Z,3.34
2017-05-12T11:23:46.180Z,3.36
2017-05-12T11:26:12.049Z,3.80
2017-05-12T11:28:38.026Z,4.18
2017-05-12T11:31:03.903Z,4.18
2017-05-12T11:33:29.801Z,4.02
2017-05-12T11:35:55.691Z,3.54
2017-05-12T11:38:22.337Z,3.60
2017-05-12T11:40:49.103Z,3.00
2017-05-12T11:43:14.985Z,3.30
2017-05-12T11:45:40.862Z,3.60
2017-05-12T11:48:06.732Z,3.64
2017-05-12T11:50:33.405Z,3.26
2017-05-12T11:52:59.414Z,3.42
2017-05-12T11:55:25.320Z,3.68
2017-05-12T11:57:51.959Z,4.32
2017-05-12T12:00:18.593Z,3.52
2017-05-12T12:02:45.214Z,3.54
2017-05-12T12:05:11.917Z,3.96
2017-05-12T12:07:37.787Z,3.48
2017-05-12T12:10:04.414Z,3.52
2017-05-12T12:12:31.036Z,3.08
2017-05-12T12:14:57.207Z,3.02
2017-05-12T12:17:23.589Z,3.32
2017-05-12T12:19:49.465Z,2.84
2017-05-12T12:22:15.349Z,2.84
2017-05-12T12:24:41.979Z,2.90
2017-05-12T12:27:07.833Z,2.80
2017-05-12T12:29:33.803Z,2.32
2017-05-12T12:31:59.714Z,2.86
2017-05-12T12:34:25.647Z,2.78
2017-05-12T12:36:51.532Z,2.90
2017-05-12T12:39:17.423Z,2.28
2017-05-12T12:41:43.411Z,2.40
2017-05-12T12:44:10.034Z,1.94
2017-05-12T12:46:35.926Z,1.20
2017-05-12T12:49:01.795Z,1.10
2017-05-12T12:51:27.663Z,1.10
2017-05-12T12:53:53.627Z,1.10
2017-05-12T12:56:19.501Z,1.20
2017-05-12T12:58:45.369Z,1.00
2017-05-12T13:01:12.770Z,1.30
2017-05-12T13:03:38.662Z,1.10
2017-05-12T13:06:05.513Z,1.10
2017-05-12T13:08:31.395Z,1.20
2017-05-12T13:10:57.260Z,1.20
2017-05-12T13:13:23.147Z,1.70
2017-05-12T13:15:50.514Z,1.70
2017-05-12T13:18:17.340Z,1.40
2017-05-12T13:20:43.212Z,1.32
2017-05-12T13:23:09.079Z,1.82
2017-05-12T13:25:35.706Z,1.72
2017-05-12T13:28:01.588Z,2.08
2017-05-12T13:30:27.557Z,2.04
2017-05-12T13:32:53.440Z,1.70
2017-05-12T13:35:19.357Z,1.80
2017-05-12T13:37:45.223Z,1.80
2017-05-12T13:40:11.857Z,1.90
2017-05-12T13:42:38.591Z,2.14
2017-05-12T13:45:04.463Z,1.94
2017-05-12T13:47:30.347Z,2.08
2017-05-12T13:49:56.981Z,1.82
2017-05-12T13:52:23.592Z,2.04
2017-05-12T13:54:49.569Z,1.70
2017-05-12T13:57:15.427Z,1.90
2017-05-12T13:59:41.516Z,1.98
2017-05-12T14:02:07.570Z,2.10
2017-05-12T14:04:33.448Z,2.00
2017-05-12T14:06:59.359Z,2.12
2017-05-12T14:09:25.254Z,2.08
2017-05-12T14:11:51.888Z,1.70
2017-05-12T14:14:17.773Z,1.70
2017-05-12T14:16:43.683Z,1.66
2017-05-12T14:19:16.197Z,1.48
2017-05-12T14:21:42.077Z,1.30
2017-05-12T14:24:07.985Z,1.10
2017-05-12T14:26:33.943Z,1.18
2017-05-12T14:28:59.810Z,1.30
2017-05-12T14:31:26.521Z,1.32
2017-05-12T14:33:52.442Z,1.24
2017-05-12T14:36:18.311Z,1.38
2017-05-12T14:38:44.219Z,1.32
2017-05-12T14:41:10.924Z,1.34
2017-05-12T14:43:36.886Z,1.30
2017-05-12T14:46:02.776Z,1.00
2017-05-12T14:48:29.406Z,1.34
2017-05-12T14:50:56.037Z,1.24
2017-05-12T14:53:21.953Z,1.16
2017-05-12T14:55:48.269Z,1.24
2017-05-12T14:58:14.172Z,1.20
2017-05-12T15:00:40.052Z,1.36
2017-05-12T15:03:06.684Z,1.38
2017-05-12T15:05:32.569Z,1.26
2017-05-12T15:07:58.602Z,1.06
2017-05-12T15:10:24.468Z,1.28
2017-05-12T15:12:50.353Z,1.40
2017-05-12T15:15:16.982Z,1.10
2017-05-12T15:17:43.604Z,1.48
2017-05-12T15:20:09.594Z,1.42
2017-05-12T15:22:35.482Z,0.92
2017-05-12T15:25:02.821Z,1.08
2017-05-12T15:27:29.492Z,1.24
2017-05-12T15:29:55.390Z,1.36
2017-05-12T15:32:22.098Z,1.38
2017-05-12T15:34:48.005Z,1.10
2017-05-12T15:37:13.923Z,1.42
2017-05-12T15:39:39.800Z,1.20
2017-05-12T15:42:05.681Z,0.90
2017-05-12T15:44:31.655Z,1.40
2017-05-12T15:46:57.571Z,1.28
2017-05-12T15:49:23.462Z,1.20
2017-05-12T15:51:50.100Z,1.10
2017-05-12T15:54:16.724Z,1.30
2017-05-12T15:56:42.926Z,1.60
2017-05-12T15:59:08.823Z,1.30
2017-05-12T16:01:34.705Z,1.44
2017-05-12T16:04:01.329Z,1.30
2017-05-12T16:06:28.708Z,0.96
2017-05-12T16:08:55.436Z,1.64
2017-05-12T16:11:21.300Z,1.80
2017-05-12T16:13:47.190Z,1.80
2017-05-12T16:16:13.097Z,1.66
2017-05-12T16:18:39.761Z,1.88
2017-05-12T16:21:05.821Z,1.68
2017-05-12T16:23:31.722Z,1.90
2017-05-12T16:25:57.610Z,2.22
2017-05-12T16:28:24.229Z,2.26
2017-05-12T16:30:50.971Z,2.12
2017-05-12T16:33:17.343Z,1.60
2017-05-12T16:35:43.221Z,2.80
2017-05-12T16:38:09.854Z,2.80
2017-05-12T16:40:36.472Z,1.98
2017-05-12T16:43:02.377Z,2.42
2017-05-12T16:45:28.375Z,1.70
2017-05-12T16:47:54.256Z,1.76
2017-05-12T16:50:20.173Z,1.72
2017-05-12T16:52:46.807Z,2.60
2017-05-12T16:55:12.680Z,2.22
2017-05-12T16:57:38.659Z,2.02
2017-05-12T17:00:05.294Z,2.00
2017-05-12T17:02:31.925Z,2.30
2017-05-12T17:04:58.568Z,2.40
2017-05-12T17:07:25.235Z,1.96
2017-05-12T17:09:51.157Z,1.72
2017-05-12T17:12:17.044Z,2.18
2017-05-12T17:14:43.777Z,1.88
2017-05-12T17:17:09.662Z,1.92
2017-05-12T17:19:35.540Z,1.76
2017-05-12T17:22:01.520Z,1.98
2017-05-12T17:24:27.426Z,1.84
2017-05-12T17:26:53.419Z,2.98
2017-05-12T17:29:19.304Z,2.62
2017-05-12T17:31:45.943Z,3.24
2017-05-12T17:34:12.585Z,3.46
2017-05-12T17:36:39.229Z,3.86
2017-05-12T17:39:06.130Z,3.88
2017-05-12T17:41:32.029Z,3.60
2017-05-12T17:43:57.916Z,3.48
2017-05-12T17:46:24.544Z,3.86
2017-05-12T17:48:51.228Z,3.76
2017-05-12T17:51:17.233Z,3.36
2017-05-12T17:53:43.116Z,3.30
2017-05-12T17:56:09.756Z,3.18
2017-05-12T17:58:36.388Z,3.42
2017-05-12T18:01:03.023Z,3.38
2017-05-12T18:03:29.751Z,3.56
2017-05-12T18:05:55.655Z,3.52
2017-05-12T18:08:21.541Z,3.10
2017-05-12T18:10:47.421Z,3.60
2017-05-12T18:13:14.085Z,3.24
2017-05-12T18:15:40.886Z,3.20
2017-05-12T18:18:06.789Z,2.96
2017-05-12T18:20:32.683Z,3.28
2017-05-12T18:22:58.709Z,3.34
2017-05-12T18:25:24.627Z,2.66
2017-05-12T18:27:50.596Z,2.02
2017-05-12T18:30:16.509Z,2.28
2017-05-12T18:32:42.443Z,2.78
2017-05-12T18:35:09.825Z,2.98
2017-05-12T18:37:35.710Z,1.90
2017-05-12T18:40:01.684Z,1.80
2017-05-12T18:42:27.602Z,0.98
2017-05-12T18:44:53.488Z,1.36
2017-05-12T18:47:20.129Z,2.36
2017-05-12T18:49:46.755Z,1.38
2017-05-12T18:52:12.744Z,1.56
2017-05-12T18:54:38.660Z,1.04
2017-05-12T18:57:04.539Z,1.48
2017-05-12T18:59:30.421Z,1.30
2017-05-12T19:01:56.315Z,1.58
2017-05-12T19:04:22.272Z,1.56
2017-05-12T19:06:48.162Z,1.00
2017-05-12T19:09:14.038Z,1.10
2017-05-12T19:11:39.909Z,1.72
2017-05-12T19:14:05.794Z,1.10
2017-05-12T19:16:31.760Z,1.32
2017-05-12T19:18:57.647Z,1.22
2017-05-12T19:21:23.573Z,1.28
2017-05-12T19:23:49.578Z,1.38
2017-05-12T19:26:15.475Z,1.90
2017-05-12T19:28:42.187Z,1.82
2017-05-12T19:31:08.088Z,1.76
2017-05-12T19:33:33.968Z,2.16
2017-05-12T19:35:59.849Z,2.16
2017-05-12T19:38:25.735Z,1.78
2017-05-12T19:40:51.681Z,1.70
2017-05-12T19:43:17.601Z,1.62
2017-05-12T19:45:43.689Z,2.00
2017-05-12T19:48:09.646Z,1.86
2017-05-12T19:50:35.581Z,2.22
2017-05-12T19:53:02.311Z,2.58
2017-05-12T19:55:28.189Z,2.90
2017-05-12T19:57:54.179Z,2.76
2017-05-12T20:00:20.811Z,2.50
2017-05-12T20:02:47.442Z,2.10
2017-05-12T20:05:14.174Z,2.08
2017-05-12T20:07:40.079Z,2.72
2017-05-12T20:10:05.965Z,2.04
2017-05-12T20:12:31.852Z,2.12
2017-05-12T20:14:58.487Z,2.18
2017-05-12T20:17:25.213Z,1.90
2017-05-12T20:19:51.099Z,2.90
2017-05-12T20:22:16.984Z,2.62
2017-05-12T20:24:42.873Z,3.06
2017-05-12T20:27:09.581Z,3.32
2017-05-12T20:29:35.569Z,2.90
2017-05-12T20:32:01.469Z,5.46
2017-05-12T20:34:28.120Z,4.00
2017-05-12T20:36:54.721Z,3.52
2017-05-12T20:39:20.650Z,3.92
2017-05-12T20:41:47.365Z,3.68
2017-05-12T20:44:13.259Z,4.20
2017-05-12T20:46:39.148Z,3.54
2017-05-12T20:49:05.051Z,3.56
2017-05-12T20:51:31.698Z,4.28
2017-05-12T20:53:58.385Z,4.32
2017-05-12T20:56:24.262Z,5.08
2017-05-12T20:58:50.239Z,3.92
2017-05-12T21:01:16.123Z,3.82
2017-05-12T21:03:42.010Z,4.76
2017-05-12T21:06:08.797Z,4.46
2017-05-12T21:08:34.674Z,4.06
2017-05-12T21:11:01.338Z,4.50
2017-05-12T21:13:27.211Z,4.08
2017-05-12T21:15:53.913Z,3.64
2017-05-12T21:18:19.905Z,4.42
2017-05-12T21:20:45.819Z,3.88
2017-05-12T21:23:12.441Z,4.50
2017-05-12T21:25:39.089Z,5.48
2017-05-12T21:28:05.752Z,5.28
2017-05-12T21:30:31.701Z,5.04
2017-05-12T21:32:57.603Z,5.36
2017-05-12T21:35:23.508Z,5.08
2017-05-12T21:37:49.397Z,4.40
2017-05-12T21:40:16.021Z,4.82
2017-05-12T21:42:42.737Z,5.30
2017-05-12T21:45:08.731Z,5.70
2017-05-12T21:47:34.616Z,5.02
2017-05-12T21:50:01.238Z,6.12
2017-05-12T21:52:27.911Z,5.72
2017-05-12T21:54:53.870Z,6.18
2017-05-12T21:57:19.744Z,5.72
2017-05-12T21:59:45.700Z,5.98
2017-05-12T22:02:12.950Z,6.78
2017-05-12T22:04:38.843Z,7.00
2017-05-12T22:07:04.793Z,9.24
2017-05-12T22:09:30.675Z,7.68
2017-05-12T22:11:56.550Z,7.98
2017-05-12T22:14:22.432Z,8.18
2017-05-12T22:16:48.328Z,8.22
2017-05-12T22:19:15.328Z,8.62
2017-05-12T22:21:41.223Z,7.68
2017-05-12T22:24:07.105Z,8.92
2017-05-12T22:26:33.736Z,8.50
2017-05-12T22:29:00.382Z,8.50
2017-05-12T22:31:27.073Z,7.92
2017-05-12T22:33:52.944Z,13.46
2017-05-12T22:36:19.000Z,10.74
2017-05-12T22:38:44.913Z,10.74
2017-05-12T22:41:10.785Z,11.88
2017-05-12T22:43:38.291Z,10.22
2017-05-12T22:46:04.218Z,12.52
2017-05-12T22:48:30.236Z,11.86
2017-05-12T22:50:56.177Z,10.56
2017-05-12T22:53:22.082Z,11.54
2017-05-12T22:55:48.140Z,11.58
2017-05-12T22:58:14.152Z,11.02
2017-05-12T23:00:40.141Z,11.64
2017-05-12T23:03:06.036Z,12.00
2017-05-12T23:05:31.944Z,12.02
2017-05-12T23:07:58.859Z,13.20
2017-05-12T23:10:24.730Z,13.16
2017-05-12T23:12:50.600Z,12.64
2017-05-12T23:15:16.480Z,11.38
2017-05-12T23:17:42.350Z,12.34
2017-05-12T23:20:09.131Z,11.82
2017-05-12T23:22:35.001Z,12.40
2017-05-12T23:25:01.667Z,14.16
2017-05-12T23:27:28.679Z,15.12
2017-05-12T23:29:54.546Z,14.68
2017-05-12T23:32:20.502Z,13.36
2017-05-12T23:34:46.372Z,12.86
2017-05-12T23:37:13.041Z,13.44
2017-05-12T23:39:39.031Z,12.38
2017-05-12T23:42:05.655Z,12.18
2017-05-12T23:44:32.288Z,12.26
2017-05-12T23:46:59.016Z,13.38
2017-05-12T23:49:24.936Z,13.22
2017-05-12T23:51:50.811Z,13.80
2017-05-12T23:54:16.753Z,12.26
2017-05-12T23:56:42.650Z,12.24
2017-05-12T23:59:08.548Z,12.82
